Tropical Cyclones
[Index]
Main Index Home Page Stock Weather Photos Extreme Storms Discussion Storm News and Storm Chasing Reports Tropical Cyclones / Hurricanes / Typhoons Weather Data and Links Wild Fires / Bushfires Weather Observation Techniques Weather Picture Catalogue Tornado Pictures and Reports Stock Video Footage and DVDs for sale
Season 1978-1979 Tropical Cyclone KEVIN Track Map
Season 1978-1979 Summaries: [BoM-AU] [JTWC-AU] [JTWC-SIO] [JTWC-SPAC] [JTWC-SH]
<<- Previous TC | JTWC 1978-1979 Season | Next TC ->>

click for intensity scale information  Lat/long Grid: Show Hide

 Date Labels: Show Hide

Joint Typhoon Warning Centre Cyclone Data

Name: KEVIN

28 Apr 1979 00:00 UTC to 09 May 1979 00:00 UTC

    date/time    lat    long     hPa   cat  kts
1979-04-28 00    6.0    94.0                  25          
1979-04-28 06    6.2    94.0                  30          
1979-04-28 12    6.5    93.8                  30          
1979-04-28 18    7.0    93.4                  30          
1979-04-29 00    7.5    93.1                  25          
1979-04-29 06    7.8    92.9                  25          
1979-04-29 12    8.0    92.8                  25          
1979-04-29 18    8.1    92.6                  25          
1979-04-30 00    8.3    92.4                  25          
1979-04-30 06    8.5    92.0                  25          
1979-04-30 12    8.7    91.5                  25          
1979-04-30 18    8.9    91.3                  25          
1979-05-01 00    9.0    91.0                  25          
1979-05-01 06    9.0    90.0                  25          
1979-05-01 12    8.7    89.0                  30          
1979-05-01 18    8.2    88.4                  30          
1979-05-02 00    7.8    87.9                  30          
1979-05-02 06    7.6    87.4                  30          
1979-05-02 12    7.5    87.0                  30          
1979-05-02 18    7.2    86.5                  30          
1979-05-03 00    7.0    86.2                  30          
1979-05-03 06    7.0    86.5                  30          
1979-05-03 12    7.0    87.0                  35          
1979-05-03 18    6.6    87.5                  35          
1979-05-04 00    6.2    87.5                  35          
1979-05-04 06    6.2    86.6                  35          
1979-05-04 12    6.3    85.5                  35          
1979-05-04 18    6.6    84.5                  35          
1979-05-05 00    6.8    83.7                  35          
1979-05-05 06    6.9    83.1            1     45          
1979-05-05 12    6.8    82.5            1     50          
1979-05-05 18    6.5    81.9            1     50          
1979-05-06 00    6.3    81.4            1     50          
1979-05-06 06    6.5    81.0            1     50          
1979-05-06 12    6.8    80.9            1     50          
1979-05-06 18    7.0    81.0            1     50          
1979-05-07 00    7.3    81.3            1     50          
1979-05-07 06    7.5    81.7            1     45          
1979-05-07 12    7.7    82.1                  35          
1979-05-07 18    7.8    82.4                  30          
1979-05-08 00    7.8    82.8                  30          
1979-05-08 06    8.2    84.6                  30          
1979-05-08 12    8.7    87.0                  30          
1979-05-08 18    8.6    88.6                              
1979-05-09 00    8.2    89.9                              
Winds are 1-min average.

Tropical cyclone tracks developed by Michael Bath using data from the Joint Typhoon Warning Centre Best Tracks and Google Maps.


[Australian Severe Weather index] [Copyright Notice] [Email Contacts] [Search This Site] [Privacy Policy]
Document: tropical_cyclone_kevin.htm Updated: 18 September 2016